Neptune Pioneer — 3EKH6 — position and weather

sailwx.info

Track history (hours):
 
Tides and Currents Weather Stations Pressure Air Temp Water Temp Dewpoint Dewpoint Depression Visibility Wind Speed Wind Dir Waves Ship Positions

Neptune Pioneer

Last reported at 2017-Jul-07 16:30 UTC. Time now 2017-Aug-17 15:20 UTC.
Position N 38°08' E 121°50'.
Warning: this ship's position is 40 days out of date.

Length 190 m; draft 9.5 m.

Type: Cargo ship. MMSI: 372723000.

Date/timePositionNaut miles runAvg speedWind from/ knotsBaromVisibWave heightAir tempDewpointWater temp
2017-Jul-07 16:30N 38°08' E 121°50'  
2017-Jul-04 13:45N 38°43' E 120°10'313.4
2017-Jul-04 13:30N 38°42' E 120°14'913.4
2017-Jul-04 12:47N 38°41' E 120°26'2413.2
2017-Jul-04 10:59N 38°35' E 120°56'714.4
2017-Jul-04 10:29N 38°32' E 121°04'5114.0
2017-Jul-04 06:49N 38°06' E 122°01'513.9
2017-Jul-04 06:27N 38°04' E 122°07'3514.3
2017-Jul-04 04:01N 37°47' E 122°45'213.8
2017-Jul-04 03:52N 37°46' E 122°47'  
Track history (hours):
 
Tides and Currents Weather Stations Pressure Air Temp Water Temp Dewpoint Dewpoint Depression Visibility Wind Speed Wind Dir Waves Ship Positions

Neptune Pioneer

Last reported at 2017-Jul-07 16:30 UTC. Time now 2017-Aug-17 15:20 UTC.
Position N 38°08' E 121°50'.
Warning: this ship's position is 40 days out of date.

Length 190 m; draft 9.5 m.

Type: Cargo ship. MMSI: 372723000.

Date/timePositionNaut miles runAvg speedWind from/ knotsBaromVisibWave heightAir tempDewpointWater temp
2017-Jul-07 16:30N 38°08' E 121°50'  
2017-Jul-04 13:45N 38°43' E 120°10'313.4
2017-Jul-04 13:30N 38°42' E 120°14'913.4
2017-Jul-04 12:47N 38°41' E 120°26'2413.2
2017-Jul-04 10:59N 38°35' E 120°56'714.4
2017-Jul-04 10:29N 38°32' E 121°04'5114.0
2017-Jul-04 06:49N 38°06' E 122°01'513.9
2017-Jul-04 06:27N 38°04' E 122°07'3514.3
2017-Jul-04 04:01N 37°47' E 122°45'213.8
2017-Jul-04 03:52N 37°46' E 122°47'  

Dump ship's entire track history